Terminal Aerodrome Forecast
Issued by NWS

Home | Current Version | Previous Version | Text Only | Print | Product List | Glossary On
Versions: 1 2 3 4 5 6 7 8 9 10 11 12 13 14 15 16 17 18 19 20 21 22 23 24 25 26 27 28 29 30
000
FTUS45 KPSR 012300
TAFSDL
TAF
KSDL 012337Z 0200/0224 23006KT P6SM FEW090 BKN250
     FM020300 13010KT P6SM VCTS SCT100CB BKN120 PROB30 0209/0213
      P6SM -TSRA SCT050CB OVC100
     FM021300 10005KT P6SM VCTS SCT050CB OVC100=

USA.gov is the U.S. government's official web portal to all federal, state and local government web resources and services.